Egypt, AR (72427)

1:17 PM CDT on September 02, 2014 (GMT -0500)
Jonesboro Municipal | Change Station
CLOSE
Current Station
Airport
Location: Jonesboro,
Elevation: 262 ft
Nearby Weather Stations

Elev 262 ft 35.83 °N, 90.65 °W | Updated 24 minutes ago

Clear
Clear
83 °F
Feels Like 89 °F
N
14
Wind Variable Wind from WSW

Today
High -- | Low -- °F
--% Chance of Precip.
Yesterday
High -- | Low -- °F
Precip. -- in
6:36 AM 7:29 PM
First Quarter, 53% visible
Pressure 29.99 in
Visibility 10.0 miles
Clouds Clear
Heat Index 89 °F
Dew Point 73 °F
Humidity 72%
Rainfall 0.63 in
Snow Depth Not available.
UV 10 out of 12
Pollen 10.40 out of 12
Air Quality Not available.
Flu Activity Not available.
METAR KJBR 021753Z AUTO 24012KT 10SM CLR 28/23 A3000 RMK AO2 SLP154 6//// T02830228 10283 20222 56009

More Conditions Fewer Conditions

Pressure 29.99 in
Visibility 10.0 miles
Clouds Clear
Heat Index 89 °F
Dew Point 73 °F
Humidity 72%
Rainfall 0.63 in
Snow Depth Not available.
UV 10 out of 12
Pollen 10.40 out of 12
Air Quality Not available.
Flu Activity Not available.
METAR KJBR 021753Z AUTO 24012KT 10SM CLR 28/23 A3000 RMK AO2 SLP154 6//// T02830228 10283 20222 56009

More Conditions Fewer Conditions

10-Day Weather Forecast

Almanac

Astronomy

Sep. 02, 2014 Rise Set
Actual Time 6:36 AM CDT 7:29 PM CDT
Civil Twilight 6:10 AM CDT 7:55 PM CDT
Nautical Twilight 5:39 AM CDT 8:26 PM CDT
Astronomical Twilight 5:07 AM CDT 8:58 PM CDT
Moon 2:07 PM CDT No Moon Set
Length of Visible Light 13h 45m
Length of Day
12h 53m
Tomorrow will be 2m 11s shorter.
First Quarter, 53% of the Moon is Illuminated
Today
First Quarter
Sep 8
Full
Sep 15
Last Quarter
Sep 24
New
Oct 1
First Quarter

Today's Extremes

State Highs State Lows

Community

WunderPhotos

Upload Photos

1,749,723 photos uploaded!

WunderBlogs® & News

Nearby

Snow Depth

Station Depth Elevation
No new snow has been reported.

Earthquake Activity

City Distance Mag. Time & Date
Tiptonville, Tennessee 87 miles 2.9 11:19 PM CDT
2014-08-31
Minimum magnitude displayed is 2.5.

Coastal Water Temperatures

Place Temperature
No Stations Reporting

Nearby Weather Stations